School House Canyon (220) Station Data

Red Flag Warning: No
Fire Weather Zone: 250
SDGE Region: Ramona
Lat/Lon: 33.146/-116.641

Observations

Time Wind Speed/Gust Temp(F) RH Fuel Moist Fuel Temp(F) Dewpt(F) Tmax(F) Tmin(F) Accum Precip 10-min Precip SL Press(mb)
3/29 8:00am 324 4 G 13 57° 20% - - 17° 57.8° 47.3° - - -
3/29 7:50am 342 7 G 16 57° 20% - - 16° 57.8° 47.3° - - -
3/29 7:40am 325 5 G 14 56° 20% - - 15° 57.5° 47.3° - - -
3/29 7:30am 87 4 G 10 56° 20% - - 16° 57.5° 47.3° - - -
3/29 7:20am 81 5 G 13 56° 20% - - 15° 57.5° 47.3° - - -
3/29 7:10am 37 10 G 17 57° 19% - - 15° 57.5° 47.3° - - -
3/29 7:00am 54 9 G 18 55° 21% - - 16° 57.3° 47.3° - - -
3/29 6:50am 19 5 G 12 55° 21% - - 16° 57.3° 47.3° - - -
3/29 6:40am 285 3 G 8 55° 21% - - 15° 57.3° 47.3° - - -
3/29 6:30am 348 4 G 8 52° 24% - - 16° 57.3° 47.3° - - -
3/29 6:20am 26 5 G 8 53° 22% - - 15° 57.3° 47.3° - - -
3/29 6:10am 322 3 G 8 54° 21% - - 14° 57.3° 47.3° - - -
3/29 6:00am 292 3 G 5 54° 20% - - 14° 57.3° 47.3° - - -
3/29 5:50am 279 3 G 6 54° 20% - - 14° 57.3° 47.3° - - -
3/29 5:40am 348 3 G 6 56° 19% - - 14° 57.3° 47.3° - - -
3/29 5:30am 275 4 G 8 55° 19% - - 13° 57.3° 47.3° - - -
3/29 5:20am 288 3 G 6 54° 19% - - 13° 57.3° 47.3° - - -
3/29 5:10am 297 3 G 6 54° 19% - - 13° 57.3° 47.3° - - -
3/29 5:00am 12 3 G 7 54° 20% - - 14° 57.3° 47.3° - - -
3/29 4:50am 59 5 G 7 53° 22% - - 15° 57.3° 47.3° - - -
3/29 4:40am 57 6 G 9 53° 22% - - 15° 57.3° 47.3° - - -
3/29 4:30am 49 3 G 9 54° 20% - - 14° 57.3° 47.3° - - -
3/29 4:20am 317 2 G 8 54° 19% - - 13° 57.3° 47.3° - - -
3/29 4:10am 52 4 G 10 55° 19% - - 13° 57.3° 47.3° - - -
3/29 4:00am 41 5 G 12 54° 20% - - 13° 57.3° 47.3° - - -
3/29 3:50am 55 6 G 10 54° 19% - - 13° 57.3° 47.3° - - -
3/29 3:40am 38 5 G 12 56° 18% - - 13° 57.3° 47.3° - - -
3/29 3:30am 22 6 G 13 56° 18% - - 12° 57.3° 47.3° - - -
3/29 3:20am 357 5 G 12 56° 18% - - 12° 57.3° 47.3° - - -
3/29 3:10am 24 7 G 20 57° 17% - - 12° 57.3° 47.3° - - -
3/29 3:00am 31 14 G 25 57° 17% - - 12° 57.3° 47.3° - - -
3/29 2:50am 28 9 G 23 56° 18% - - 13° 56.8° 47.3° - - -
3/29 2:40am 49 6 G 24 56° 18% - - 13° 56.6° 47.3° - - -
3/29 2:30am 41 8 G 18 55° 18% - - 13° 56.5° 47.3° - - -
3/29 2:20am 47 10 G 19 56° 18% - - 13° 56.5° 47.3° - - -
3/29 2:10am 27 11 G 22 55° 19% - - 14° 56.1° 47.3° - - -
3/29 2:00am 11 4 G 14 52° 25% - - 18° 54.4° 47.3° - - -
3/29 1:50am 8 2 G 6 51° 28% - - 19° 52.9° 47.3° - - -
3/29 1:40am 30 4 G 7 49° 32% - - 21° 50.7° 47.3° - - -
3/29 1:30am 39 7 G 10 49° 33% - - 21° 50.1° 47.3° - - -
3/29 1:20am 43 10 G 12 49° 33% - - 21° 50.1° 47.3° - - -
3/29 1:10am 48 6 G 10 49° 34% - - 22° 50.1° 47.3° - - -
3/29 1:00am 38 8 G 10 48° 37% - - 23° 50.1° 47.3° - - -
3/29 12:50am 36 9 G 12 49° 36% - - 23° 50.1° 47.9° - - -
3/29 12:40am 29 9 G 12 49° 36% - - 23° 50.1° 48.3° - - -
3/29 12:30am 31 9 G 11 49° 37% - - 24° 50.1° 48.4° - - -
3/29 12:20am 29 9 G 12 49° 37% - - 24° 50.1° 48.5° - - -
3/29 12:10am 29 10 G 13 49° 38% - - 25° 49.5° 48.5° - - -
3/29 12:00am 24 10 G 13 48° 41% - - 26° 61.4° 41.9° - - -
3/28 11:50pm 18 9 G 11 47° 43% - - 26° 61.4° 41.9° - - -
3/28 11:40pm 24 10 G 12 47° 43% - - 26° 61.4° 41.9° - - -
3/28 11:30pm 23 11 G 14 48° 41% - - 25° 61.4° 41.9° - - -
3/28 11:20pm 19 12 G 14 49° 37% - - 24° 61.4° 41.9° - - -
3/28 11:10pm 16 12 G 14 48° 36% - - 23° 61.4° 41.9° - - -
3/28 11:00pm 12 11 G 14 49° 36% - - 23° 61.4° 41.9° - - -
3/28 10:50pm 13 10 G 12 51° 34% - - 23° 61.4° 41.9° - - -
3/28 10:40pm 11 10 G 12 52° 36% - - 25° 61.4° 41.9° - - -
3/28 10:30pm 14 9 G 11 51° 39% - - 27° 61.4° 41.9° - - -
3/28 10:20pm 13 10 G 12 51° 39% - - 27° 61.4° 41.9° - - -
3/28 10:10pm 13 9 G 12 51° 40% - - 27° 61.4° 41.9° - - -
3/28 10:00pm 9 9 G 11 51° 40% - - 28° 61.4° 41.9° - - -
3/28 9:50pm 12 9 G 11 51° 40% - - 28° 61.4° 41.9° - - -
3/28 9:40pm 11 9 G 11 51° 41% - - 28° 61.4° 41.9° - - -
3/28 9:30pm 11 9 G 11 52° 40% - - 29° 61.4° 41.9° - - -
3/28 9:20pm 12 8 G 10 52° 42% - - 29° 61.4° 41.9° - - -
3/28 9:10pm 13 8 G 10 52° 44% - - 30° 61.4° 41.9° - - -
3/28 9:00pm 10 7 G 9 51° 47% - - 32° 61.4° 41.9° - - -
3/28 8:50pm 8 8 G 9 51° 49% - - 33° 61.4° 41.9° - - -
3/28 8:40pm 5 7 G 9 51° 51% - - 34° 61.4° 41.9° - - -
3/28 8:30pm 2 8 G 9 50° 56% - - 35° 61.4° 41.9° - - -
3/28 8:20pm 1 7 G 9 50° 58% - - 36° 61.4° 41.9° - - -
3/28 8:10pm 21 4 G 6 49° 66% - - 38° 61.4° 41.9° - - -
3/28 8:00pm 12 5 G 8 50° 67% - - 39° 61.4° 41.9° - - -
3/28 7:50pm 14 3 G 5 50° 69% - - 40° 61.4° 41.9° - - -
3/28 7:40pm 22 5 G 6 50° 72% - - 42° 61.4° 41.9° - - -
3/28 7:30pm 17 2 G 5 50° 74% - - 42° 61.4° 41.9° - - -
3/28 7:20pm 20 4 G 7 52° 69% - - 42° 61.4° 41.9° - - -
3/28 7:10pm 40 1 G 3 53° 66% - - 42° 61.4° 41.9° - - -
3/28 7:00pm 54 1 G 3 54° 62% - - 41° 61.4° 41.9° - - -
3/28 6:50pm 229 2 G 6 54° 62% - - 42° 61.4° 41.9° - - -
3/28 6:40pm 206 4 G 7 55° 58% - - 41° 61.4° 41.9° - - -
3/28 6:30pm 205 4 G 8 56° 55% - - 41° 61.4° 41.9° - - -
3/28 6:20pm 220 4 G 9 57° 54% - - 40° 61.4° 41.9° - - -
3/28 6:10pm 204 5 G 10 57° 53% - - 40° 61.4° 41.9° - - -
3/28 6:00pm 236 5 G 8 58° 53% - - 41° 61.4° 41.9° - - -
3/28 5:50pm 214 5 G 10 58° 53% - - 41° 61.4° 41.9° - - -
3/28 5:40pm 223 5 G 10 58° 51% - - 40° 61.4° 41.9° - - -
3/28 5:30pm 208 7 G 12 59° 49% - - 40° 61.4° 41.9° - - -
3/28 5:20pm 216 6 G 12 60° 47% - - 40° 61.4° 41.9° - - -
3/28 5:10pm 223 6 G 11 61° 45% - - 39° 61.4° 41.9° - - -
3/28 5:00pm 204 5 G 10 60° 44% - - 38° 61.4° 41.9° - - -
3/28 4:50pm 205 6 G 11 60° 44% - - 38° 61.4° 41.9° - - -
3/28 4:40pm 209 6 G 11 60° 43% - - 38° 61.4° 41.9° - - -
3/28 4:30pm 211 7 G 11 60° 41% - - 37° 61.4° 41.9° - - -
3/28 4:20pm 203 7 G 12 61° 40% - - 36° 61.4° 41.9° - - -
3/28 4:10pm 207 7 G 11 60° 39% - - 35° 61.4° 41.9° - - -
3/28 4:00pm 194 5 G 10 60° 39% - - 35° 61.4° 41.9° - - -
3/28 3:50pm 200 6 G 10 60° 39% - - 35° 61.4° 41.9° - - -
3/28 3:40pm 214 6 G 9 61° 39% - - 35° 61.4° 41.9° - - -
3/28 3:30pm 207 7 G 11 60° 39% - - 35° 61.4° 41.9° - - -
3/28 3:20pm 201 7 G 13 60° 40% - - 36° 61.2° 41.9° - - -
3/28 3:10pm 217 7 G 13 60° 39% - - 35° 61.2° 41.9° - - -
3/28 3:00pm 203 5 G 11 60° 40% - - 35° 60.9° 41.9° - - -
3/28 2:50pm 206 6 G 13 59° 40% - - 35° 60.9° 41.9° - - -
3/28 2:40pm 205 8 G 12 59° 40% - - 35° 60.9° 41.9° - - -
3/28 2:30pm 211 6 G 12 59° 38% - - 34° 60.9° 41.9° - - -
3/28 2:20pm 210 7 G 11 59° 38% - - 34° 60.9° 41.9° - - -
3/28 2:10pm 213 8 G 12 59° 39% - - 34° 60.9° 41.9° - - -
3/28 2:00pm 217 5 G 11 60° 37% - - 34° 60.8° 41.9° - - -
3/28 1:50pm 240 4 G 10 59° 36% - - 32° 60.4° 41.9° - - -
3/28 1:40pm 206 6 G 11 58° 38% - - 33° 60.4° 41.9° - - -
3/28 1:30pm 208 6 G 12 59° 39% - - 34° 60.4° 41.9° - - -
3/28 1:20pm 204 7 G 13 59° 39% - - 34° 60.4° 41.9° - - -
3/28 1:10pm 208 6 G 12 58° 40% - - 34° 60.4° 41.9° - - -
3/28 1:00pm 209 7 G 12 59° 38% - - 33° 60.4° 41.9° - - -
3/28 12:50pm 213 8 G 14 59° 33% - - 30° 60.4° 41.9° - - -
3/28 12:40pm 214 7 G 12 59° 30% - - 28° 60.4° 41.9° - - -
3/28 12:30pm 250 6 G 10 59° 26% - - 24° 59.9° 41.9° - - -
3/28 12:20pm 209 7 G 12 59° 26% - - 24° 59.9° 41.9° - - -
3/28 12:10pm 193 6 G 12 59° 26% - - 24° 59.9° 41.9° - - -
3/28 12:00pm 175 4 G 9 58° 26% - - 23° 58.7° 41.9° - - -
3/28 11:50am 197 4 G 10 57° 26% - - 22° 58.5° 41.9° - - -
3/28 11:40am 199 5 G 11 58° 27% - - 24° 58.5° 41.9° - - -
3/28 11:30am 213 5 G 9 57° 27% - - 23° 58° 41.9° - - -
3/28 11:20am 204 6 G 10 57° 27% - - 23° 57.8° 41.9° - - -
3/28 11:10am 219 6 G 11 57° 27% - - 24° 57.8° 41.9° - - -
3/28 11:00am 205 5 G 10 57° 27% - - 23° 57.4° 41.9° - - -
3/28 10:50am 181 4 G 11 56° 26% - - 22° 56.9° 41.9° - - -
3/28 10:40am 210 4 G 7 56° 26% - - 22° 56.9° 41.9° - - -
3/28 10:30am 199 3 G 8 55° 27% - - 22° 56.9° 41.9° - - -
3/28 10:20am 225 4 G 9 55° 27% - - 21° 55.9° 41.9° - - -
3/28 10:10am 178 4 G 8 55° 27% - - 21° 55.6° 41.9° - - -
3/28 10:00am 207 4 G 9 54° 26% - - 20° 55.2° 41.9° - - -
3/28 9:50am 126 4 G 16 54° 26% - - 20° 54.9° 41.9° - - -
3/28 9:40am 108 3 G 8 54° 23% - - 17° 54.9° 41.9° - - -
3/28 9:30am 215 4 G 9 53° 26% - - 19° 54° 41.9° - - -
3/28 9:20am 171 3 G 11 52° 26% - - 18° 53.4° 41.9° - - -
3/28 9:10am 138 2 G 7 53° 27% - - 19° 53.4° 41.9° - - -
3/28 9:00am 101 2 G 5 52° 28% - - 20° 53.4° 41.9° - - -
3/28 8:50am 108 1 G 5 51° 27% - - 19° 52.3° 41.9° - - -
3/28 8:40am 247 0 G 1 49° 30% - - 19° 50.3° 41.9° - - -
3/28 8:30am 203 1 G 4 49° 31% - - 20° 49.3° 41.9° - - -
3/28 8:20am 48 3 G 4 48° 32% - - 19° 48.8° 41.9° - - -
3/28 8:10am 54 2 G 5 47° 31% - - 18° 48.7° 41.9° - - -
3/28 8:00am 326 1 G 2 47° 29% - - 16° 48.7° 41.9° - - -
3/28 7:50am 247 3 G 6 47° 27% - - 15° 48.7° 41.9° - - -
3/28 7:40am 286 3 G 5 47° 28% - - 15° 48.7° 41.9° - - -
3/28 7:30am 3 4 G 7 45° 31% - - 16° 48.7° 41.9° - - -
3/28 7:20am 12 3 G 6 45° 32% - - 17° 48.7° 41.9° - - -
3/28 7:10am 18 3 G 5 44° 35% - - 18° 48.7° 41.9° - - -
3/28 7:00am 35 6 G 9 43° 35% - - 18° 48.7° 41.9° - - -
3/28 6:50am 22 7 G 10 43° 34% - - 17° 48.7° 41.9° - - -
3/28 6:40am 39 7 G 9 43° 34% - - 17° 48.7° 41.9° - - -
3/28 6:30am 17 9 G 13 47° 26% - - 13° 48.7° 42.9° - - -
3/28 6:20am 26 9 G 12 47° 25% - - 13° 48.7° 42.9° - - -
3/28 6:10am 20 9 G 14 47° 26% - - 14° 48.7° 42.9° - - -
3/28 6:00am 16 11 G 16 47° 26% - - 14° 48.7° 42.9° - - -